Aviation Digital Data Service (ADDS)

Output produced by METARs form (2253 UTC 29 July 2014)
found at http://www.aviationweather.gov/adds/metars/
 
KTHV 292153Z AUTO 33004KT 10SM BKN043 BKN050 OVC080 20/13 A2996 RMK AO2 SLP146 T02000133
KTHV 292053Z AUTO 30004KT 10SM SCT047 BKN060 OVC075 20/13 A2995 RMK AO2 SLP142 T02000133 53008
KTHV 291953Z AUTO 00000KT 10SM SCT065 OVC080 21/13 A2994 RMK AO2 SLP138 T02060128
KTHV 291853Z AUTO 32008KT 10SM BKN036 OVC070 20/13 A2993 RMK AO2 SLP136 T02000133
KTHV 291753Z AUTO VRB03KT 10SM FEW048 BKN075 22/13 A2992 RMK AO2 SLP133 T02170128 10222 20161 56002
KTHV 291653Z AUTO 34005KT 10SM FEW050 BKN070 21/13 A2993 RMK AO2 SLP134 T02060133
KTHV 291553Z AUTO 00000KT 10SM FEW028 BKN055 OVC070 20/13 A2993 RMK AO2 SLP134 T02000128
KTHV 291542Z AUTO VRB06KT 10SM SCT027 BKN055 BKN070 20/14 A2993 RMK AO2 T02000139
KTHV 291514Z AUTO 30006KT 10SM BKN027 OVC060 19/13 A2993 RMK AO2 T01940133
KTHV 291453Z AUTO 36004KT 10SM FEW023 BKN060 OVC070 19/13 A2993 RMK AO2 SLP136 T01940133 50004
KTHV 291353Z AUTO 34005KT 10SM SCT037 OVC070 18/13 A2994 RMK AO2 SLP137 T01830133
KTHV 291253Z AUTO 28005KT 10SM BKN037 18/14 A2993 RMK AO2 SLP135 T01780139
KTHV 291153Z AUTO 27005KT 10SM BKN036 16/13 A2992 RMK AO2 SLP132 T01610133 10167 20133 51018
KTHV 291053Z AUTO 25003KT 10SM BKN035 15/14 A2990 RMK AO2 SLP127 T01500139
KTHV 290953Z AUTO 30003KT 10SM OVC035 14/13 A2988 RMK AO2 SLP119 T01390133
KTHV 290853Z AUTO 00000KT 10SM CLR 14/13 A2987 RMK AO2 SLP112 T01390128 53009
KTHV 290753Z AUTO 30003KT 10SM CLR 13/12 A2985 RMK AO2 SLP109 T01330122
KTHV 290653Z AUTO 27003KT 10SM CLR 15/13 A2984 RMK AO2 SLP105 T01500133
KTHV 290553Z AUTO 30003KT 10SM BKN085 17/14 A2984 RMK AO2 SLP103 60000 T01720139 10194 20172 52004
KTHV 290453Z AUTO 28003KT 10SM OVC080 17/15 A2983 RMK AO2 SLP102 T01720150 402610172
KTHV 290353Z AUTO 00000KT 10SM SCT070 17/15 A2983 RMK AO2 SLP100 T01720150
KTHV 290253Z AUTO 00000KT 10SM BKN044 BKN065 OVC090 18/16 A2983 RMK AO2 SLP099 60000 T01830156 51024
KTHV 290153Z AUTO 28007KT 10SM BKN060 OVC100 19/16 A2981 RMK AO2 RAE0058 SLP093 P0000 T01890161
KTHV 290053Z AUTO 30007KT 10SM -RA BKN070 OVC110 19/16 A2977 RMK AO2 RAB21 SLP082 P0000 T01940161
KTHV 282353Z AUTO 32003KT 10SM FEW050 BKN080 OVC110 19/17 A2976 RMK AO2 WSHFT 2249 RAE2255B35E51 SLP075 P0000 60000 T01890167 10261 20189 53032
KTHV 282309Z AUTO 34010G18KT 10SM OVC041 20/16 A2973 RMK AO2 WSHFT 2249 RAE2255 P0000 T02000161
KTHV 282253Z AUTO 36014G19KT 10SM -RA BKN043 OVC060 22/16 A2972 RMK AO2 RAB44 PRESRR SLP061 P0000 T02220156
KTHV 282153Z AUTO 27006G16KT 10SM FEW060 BKN075 OVC095 24/14 A2968 RMK AO2 SLP048 T02390144
KTHV 282053Z AUTO 28009G17KT 10SM FEW055 SCT070 26/15 A2966 RMK AO2 SLP043 T02560150 53005
KTHV 281953Z AUTO 28007G16KT 10SM BKN060 OVC085 24/16 A2965 RMK AO2 SLP039 T02440156
KTHV 281853Z AUTO 27010G18KT 10SM FEW055 SCT080 26/16 A2965 RMK AO2 PK WND 28028/1802 SLP038 T02610156
KTHV 281753Z AUTO 27008G21KT 10SM BKN075 OVC090 25/15 A2964 RMK AO2 SLP037 T02500150 10256 20217 50001
KTHV 281653Z AUTO 28010G18KT 10SM SCT049 BKN065 OVC080 24/16 A2965 RMK AO2 SLP038 T02390156
KTHV 281553Z AUTO 28008G16KT 10SM SCT050 BKN065 BKN110 24/16 A2965 RMK AO2 SLP037 T02440156
KTHV 281453Z AUTO 28012G20KT 250V310 10SM SCT042 BKN050 24/16 A2964 RMK AO2 SLP036 T02390161 51014
KTHV 281353Z AUTO 29011G20KT 10SM FEW027 SCT036 SCT045 23/16 A2964 RMK AO2 SLP034 T02280161
KTHV 281253Z AUTO 26008G15KT 10SM FEW040 23/19 A2962 RMK AO2 SLP027 T02280194
KTHV 281153Z AUTO VRB06KT 10SM CLR 22/19 A2960 RMK AO2 SLP021 60001 70052 T02170189 10217 20172 53010